Aviation Digital Data Service (ADDS)

Output produced by METARs form (1200 UTC 19 January 2019)
found at http://www.aviationweather.gov/metar/data/
 
METAR text: ULLI 191130Z 22002MPS 150V280 9999 -SHSN SCT023CB OVC043 M08/M09 Q1005 R88/550343 NOSIG
Conditions at: ULLI (ST PETERSBURG , RU) observed 1130 UTC 19 January 2019
Temperature: -8.0°C (18°F)
Dewpoint: -9.0°C (16°F) [RH = 92%]
Pressure (altimeter): 29.68 inches Hg (1005.0 mb)
Winds: from the SW (220 degrees) at 5 MPH (4 knots; 2.1 m/s)
Visibility: 6 or more miles (10+ km)
Ceiling: 4300 feet AGL
Clouds: scattered clouds at 2300 feet AGL
overcast cloud deck at 4300 feet AGL
Weather: -SHSN  (light snow showers)

METAR text: ULLI 191100Z 23002MPS 200V260 9000 -SHSN SCT018CB BKN040 M08/M09 Q1005 R88/550343 NOSIG
Conditions at: ULLI (ST PETERSBURG , RU) observed 1100 UTC 19 January 2019
Temperature: -8.0°C (18°F)
Dewpoint: -9.0°C (16°F) [RH = 92%]
Pressure (altimeter): 29.68 inches Hg (1005.0 mb)
Winds: from the SW (230 degrees) at 5 MPH (4 knots; 2.1 m/s)
Visibility: 6 miles ( 9 km)
Ceiling: 4000 feet AGL
Clouds: scattered clouds at 1800 feet AGL
broken clouds at 4000 feet AGL
Weather: -SHSN  (light snow showers)

METAR text: ULLI 191030Z VRB01MPS 9000 -SN FEW009 BKN020 M10/M11 Q1005 R88/550343 NOSIG
Conditions at: ULLI (ST PETERSBURG , RU) observed 1030 UTC 19 January 2019
Temperature: -10.0°C (14°F)
Dewpoint: -11.0°C (12°F) [RH = 92%]
Pressure (altimeter): 29.68 inches Hg (1005.0 mb)
Winds: variable direction winds at 2 MPH (2 knots; 1.0 m/s)
Visibility: 6 miles ( 9 km)
Ceiling: 2000 feet AGL
Clouds: few clouds at 900 feet AGL
broken clouds at 2000 feet AGL
Weather: -SN  (light snow)

METAR text: ULLI 191000Z VRB01MPS 5000 -SN FEW007 BKN020 M10/M12 Q1005 R88/550343 NOSIG RMK OBST OBSC
Conditions at: ULLI (ST PETERSBURG , RU) observed 1000 UTC 19 January 2019
Temperature: -10.0°C (14°F)
Dewpoint: -12.0°C (10°F) [RH = 85%]
Pressure (altimeter): 29.68 inches Hg (1005.0 mb)
Winds: variable direction winds at 2 MPH (2 knots; 1.0 m/s)
Visibility: 3 miles ( 5 km)
Ceiling: 2000 feet AGL
Clouds: few clouds at 700 feet AGL
broken clouds at 2000 feet AGL
Weather: -SN  (light snow)

METAR text: ULLI 190930Z 28003MPS 9999 SCT007 BKN021 M10/M11 Q1005 R28R/550343 NOSIG RMK OBST OBSC
Conditions at: ULLI (ST PETERSBURG , RU) observed 0930 UTC 19 January 2019
Temperature: -10.0°C (14°F)
Dewpoint: -11.0°C (12°F) [RH = 92%]
Pressure (altimeter): 29.68 inches Hg (1005.0 mb)
Winds: from the W (280 degrees) at 7 MPH (6 knots; 3.1 m/s)
Visibility: 6 or more miles (10+ km)
Ceiling: 2100 feet AGL
Clouds: scattered clouds at 700 feet AGL
broken clouds at 2100 feet AGL
Weather: no significant weather observed at this time

METAR text: ULLI 190900Z 27003MPS 9999 SCT007 BKN026 M11/M12 Q1005 R28R/550343 NOSIG RMK OBST OBSC
Conditions at: ULLI (ST PETERSBURG , RU) observed 0900 UTC 19 January 2019
Temperature: -11.0°C (12°F)
Dewpoint: -12.0°C (10°F) [RH = 92%]
Pressure (altimeter): 29.68 inches Hg (1005.0 mb)
Winds: from the W (270 degrees) at 7 MPH (6 knots; 3.1 m/s)
Visibility: 6 or more miles (10+ km)
Ceiling: 2600 feet AGL
Clouds: scattered clouds at 700 feet AGL
broken clouds at 2600 feet AGL
Weather: no significant weather observed at this time

METAR text: ULLI 190830Z 27003MPS 9999 BKN004 OVC030 M10/M11 Q1005 R28R/550343 NOSIG RMK QBB140 OBST OBSC
Conditions at: ULLI (ST PETERSBURG , RU) observed 0830 UTC 19 January 2019
Temperature: -10.0°C (14°F)
Dewpoint: -11.0°C (12°F) [RH = 92%]
Pressure (altimeter): 29.68 inches Hg (1005.0 mb)
Winds: from the W (270 degrees) at 7 MPH (6 knots; 3.1 m/s)
Visibility: 6 or more miles (10+ km)
Ceiling: 400 feet AGL
Clouds: broken clouds at 400 feet AGL
overcast cloud deck at 3000 feet AGL
Weather: no significant weather observed at this time

METAR text: ULLI 190800Z 28004MPS 9000 BKN005 OVC032 M10/M12 Q1005 R28R/550343 NOSIG RMK OBST OBSC
Conditions at: ULLI (ST PETERSBURG , RU) observed 0800 UTC 19 January 2019
Temperature: -10.0°C (14°F)
Dewpoint: -12.0°C (10°F) [RH = 85%]
Pressure (altimeter): 29.68 inches Hg (1005.0 mb)
Winds: from the W (280 degrees) at 9 MPH (8 knots; 4.1 m/s)
Visibility: 6 miles ( 9 km)
Ceiling: 500 feet AGL
Clouds: broken clouds at 500 feet AGL
overcast cloud deck at 3200 feet AGL
Weather: no significant weather observed at this time

METAR text: ULLI 190730Z 28004MPS 9999 OVC005 M11/M12 Q1004 R28R/550343 NOSIG RMK OBST OBSC
Conditions at: ULLI (ST PETERSBURG , RU) observed 0730 UTC 19 January 2019
Temperature: -11.0°C (12°F)
Dewpoint: -12.0°C (10°F) [RH = 92%]
Pressure (altimeter): 29.65 inches Hg (1004.0 mb)
Winds: from the W (280 degrees) at 9 MPH (8 knots; 4.1 m/s)
Visibility: 6 or more miles (10+ km)
Ceiling: 500 feet AGL
Clouds: overcast cloud deck at 500 feet AGL
Weather: no significant weather observed at this time

METAR text: ULLI 190700Z 28003MPS 9999 BKN005 OVC033 M12/M14 Q1004 R28R/550343 NOSIG RMK OBST OBSC
Conditions at: ULLI (ST PETERSBURG , RU) observed 0700 UTC 19 January 2019
Temperature: -12.0°C (10°F)
Dewpoint: -14.0°C ( 7°F) [RH = 85%]
Pressure (altimeter): 29.65 inches Hg (1004.0 mb)
Winds: from the W (280 degrees) at 7 MPH (6 knots; 3.1 m/s)
Visibility: 6 or more miles (10+ km)
Ceiling: 500 feet AGL
Clouds: broken clouds at 500 feet AGL
overcast cloud deck at 3300 feet AGL
Weather: no significant weather observed at this time

METAR text: ULLI 190630Z 29003MPS 9000 BKN006 OVC042 M13/M14 Q1003 R28L/510543 R28R/550343 NOSIG RMK OBST OBSC
Conditions at: ULLI (ST PETERSBURG , RU) observed 0630 UTC 19 January 2019
Temperature: -13.0°C ( 9°F)
Dewpoint: -14.0°C ( 7°F) [RH = 92%]
Pressure (altimeter): 29.62 inches Hg (1003.0 mb)
Winds: from the WNW (290 degrees) at 7 MPH (6 knots; 3.1 m/s)
Visibility: 6 miles ( 9 km)
Ceiling: 600 feet AGL
Clouds: broken clouds at 600 feet AGL
overcast cloud deck at 4200 feet AGL
Weather: no significant weather observed at this time

METAR text: ULLI 190600Z 29003MPS 9999 SCT007 BKN042 M13/M15 Q1003 R28L/510543 R28R/550343 NOSIG
Conditions at: ULLI (ST PETERSBURG , RU) observed 0600 UTC 19 January 2019
Temperature: -13.0°C ( 9°F)
Dewpoint: -15.0°C ( 5°F) [RH = 85%]
Pressure (altimeter): 29.62 inches Hg (1003.0 mb)
Winds: from the WNW (290 degrees) at 7 MPH (6 knots; 3.1 m/s)
Visibility: 6 or more miles (10+ km)
Ceiling: 4200 feet AGL
Clouds: scattered clouds at 700 feet AGL
broken clouds at 4200 feet AGL
Weather: no significant weather observed at this time

METAR text: ULLI 190530Z 29003MPS 9999 SCT007 BKN041 M13/M15 Q1003 R28L/510543 R28R/550343 NOSIG RMK OBST OBSC
Conditions at: ULLI (ST PETERSBURG , RU) observed 0530 UTC 19 January 2019
Temperature: -13.0°C ( 9°F)
Dewpoint: -15.0°C ( 5°F) [RH = 85%]
Pressure (altimeter): 29.62 inches Hg (1003.0 mb)
Winds: from the WNW (290 degrees) at 7 MPH (6 knots; 3.1 m/s)
Visibility: 6 or more miles (10+ km)
Ceiling: 4100 feet AGL
Clouds: scattered clouds at 700 feet AGL
broken clouds at 4100 feet AGL
Weather: no significant weather observed at this time

METAR text: ULLI 190500Z 27003MPS 9999 -SN SCT006 BKN041 M14/M15 Q1003 R28L/510543 R28R/550343 NOSIG RMK OBST OBSC
Conditions at: ULLI (ST PETERSBURG , RU) observed 0500 UTC 19 January 2019
Temperature: -14.0°C ( 7°F)
Dewpoint: -15.0°C ( 5°F) [RH = 92%]
Pressure (altimeter): 29.62 inches Hg (1003.0 mb)
Winds: from the W (270 degrees) at 7 MPH (6 knots; 3.1 m/s)
Visibility: 6 or more miles (10+ km)
Ceiling: 4100 feet AGL
Clouds: scattered clouds at 600 feet AGL
broken clouds at 4100 feet AGL
Weather: -SN  (light snow)

METAR text: ULLI 190430Z 26003MPS 9000 -SN SCT007 BKN040 M13/M15 Q1002 R28L/510543 NOSIG RMK OBST OBSC
Conditions at: ULLI (ST PETERSBURG , RU) observed 0430 UTC 19 January 2019
Temperature: -13.0°C ( 9°F)
Dewpoint: -15.0°C ( 5°F) [RH = 85%]
Pressure (altimeter): 29.59 inches Hg (1002.0 mb)
Winds: from the W (260 degrees) at 7 MPH (6 knots; 3.1 m/s)
Visibility: 6 miles ( 9 km)
Ceiling: 4000 feet AGL
Clouds: scattered clouds at 700 feet AGL
broken clouds at 4000 feet AGL
Weather: -SN  (light snow)

METAR text: ULLI 190400Z 26003MPS 9999 -SN SCT006 BKN031 M13/M14 Q1002 R28L/510543 NOSIG RMK OBST OBSC
Conditions at: ULLI (ST PETERSBURG , RU) observed 0400 UTC 19 January 2019
Temperature: -13.0°C ( 9°F)
Dewpoint: -14.0°C ( 7°F) [RH = 92%]
Pressure (altimeter): 29.59 inches Hg (1002.0 mb)
Winds: from the W (260 degrees) at 7 MPH (6 knots; 3.1 m/s)
Visibility: 6 or more miles (10+ km)
Ceiling: 3100 feet AGL
Clouds: scattered clouds at 600 feet AGL
broken clouds at 3100 feet AGL
Weather: -SN  (light snow)

METAR text: ULLI 190330Z 26002MPS 9999 SCT036 M14/M15 Q1002 R28L/510543 NOSIG
Conditions at: ULLI (ST PETERSBURG , RU) observed 0330 UTC 19 January 2019
Temperature: -14.0°C ( 7°F)
Dewpoint: -15.0°C ( 5°F) [RH = 92%]
Pressure (altimeter): 29.59 inches Hg (1002.0 mb)
Winds: from the W (260 degrees) at 5 MPH (4 knots; 2.1 m/s)
Visibility: 6 or more miles (10+ km)
Ceiling: at least 12,000 feet AGL
Clouds: scattered clouds at 3600 feet AGL
Weather: no significant weather observed at this time

METAR text: ULLI 190300Z 26002MPS 220V290 9999 SCT036 M14/M16 Q1002 R28L/510543 NOSIG
Conditions at: ULLI (ST PETERSBURG , RU) observed 0300 UTC 19 January 2019
Temperature: -14.0°C ( 7°F)
Dewpoint: -16.0°C ( 3°F) [RH = 85%]
Pressure (altimeter): 29.59 inches Hg (1002.0 mb)
Winds: from the W (260 degrees) at 5 MPH (4 knots; 2.1 m/s)
Visibility: 6 or more miles (10+ km)
Ceiling: at least 12,000 feet AGL
Clouds: scattered clouds at 3600 feet AGL
Weather: no significant weather observed at this time

METAR text: ULLI 190230Z 26002MPS 9999 -SN SCT034 M14/M16 Q1001 R28L/510543 NOSIG
Conditions at: ULLI (ST PETERSBURG , RU) observed 0230 UTC 19 January 2019
Temperature: -14.0°C ( 7°F)
Dewpoint: -16.0°C ( 3°F) [RH = 85%]
Pressure (altimeter): 29.56 inches Hg (1001.0 mb)
Winds: from the W (260 degrees) at 5 MPH (4 knots; 2.1 m/s)
Visibility: 6 or more miles (10+ km)
Ceiling: at least 12,000 feet AGL
Clouds: scattered clouds at 3400 feet AGL
Weather: -SN  (light snow)

METAR text: ULLI 190200Z 27004MPS 9999 -SN SCT033 M15/M16 Q1001 R28L/510543 NOSIG
Conditions at: ULLI (ST PETERSBURG , RU) observed 0200 UTC 19 January 2019
Temperature: -15.0°C ( 5°F)
Dewpoint: -16.0°C ( 3°F) [RH = 92%]
Pressure (altimeter): 29.56 inches Hg (1001.0 mb)
Winds: from the W (270 degrees) at 9 MPH (8 knots; 4.1 m/s)
Visibility: 6 or more miles (10+ km)
Ceiling: at least 12,000 feet AGL
Clouds: scattered clouds at 3300 feet AGL
Weather: -SN  (light snow)

METAR text: ULLI 190130Z 27003MPS 9000 -SN SCT030 M14/M16 Q1001 R28L/510543 NOSIG
Conditions at: ULLI (ST PETERSBURG , RU) observed 0130 UTC 19 January 2019
Temperature: -14.0°C ( 7°F)
Dewpoint: -16.0°C ( 3°F) [RH = 85%]
Pressure (altimeter): 29.56 inches Hg (1001.0 mb)
Winds: from the W (270 degrees) at 7 MPH (6 knots; 3.1 m/s)
Visibility: 6 miles ( 9 km)
Ceiling: at least 12,000 feet AGL
Clouds: scattered clouds at 3000 feet AGL
Weather: -SN  (light snow)

METAR text: ULLI 190100Z 28002MPS 9999 SCT030 M14/M15 Q1001 R28L/510543 NOSIG
Conditions at: ULLI (ST PETERSBURG , RU) observed 0100 UTC 19 January 2019
Temperature: -14.0°C ( 7°F)
Dewpoint: -15.0°C ( 5°F) [RH = 92%]
Pressure (altimeter): 29.56 inches Hg (1001.0 mb)
Winds: from the W (280 degrees) at 5 MPH (4 knots; 2.1 m/s)
Visibility: 6 or more miles (10+ km)
Ceiling: at least 12,000 feet AGL
Clouds: scattered clouds at 3000 feet AGL
Weather: no significant weather observed at this time

METAR text: ULLI 190030Z VRB01MPS 9000 NSC M14/M16 Q1000 R28L/510543 NOSIG
Conditions at: ULLI (ST PETERSBURG , RU) observed 0030 UTC 19 January 2019
Temperature: -14.0°C ( 7°F)
Dewpoint: -16.0°C ( 3°F) [RH = 85%]
Pressure (altimeter): 29.53 inches Hg (1000.0 mb)
Winds: variable direction winds at 2 MPH (2 knots; 1.0 m/s)
Visibility: 6 miles ( 9 km)
Ceiling: at least 12,000 feet AGL
Clouds: sky clear below 12,000 feet AGL
Weather: no significant weather observed at this time

METAR text: ULLI 190000Z 27002MPS CAVOK M14/M16 Q1000 R28L/510543 NOSIG
Conditions at: ULLI (ST PETERSBURG , RU) observed 0000 UTC 19 January 2019
Temperature: -14.0°C ( 7°F)
Dewpoint: -16.0°C ( 3°F) [RH = 85%]
Pressure (altimeter): 29.53 inches Hg (1000.0 mb)
Winds: from the W (270 degrees) at 5 MPH (4 knots; 2.1 m/s)
Visibility: 6 or more miles (10+ km)
Ceiling: ceiling and visibility are OK
Clouds: unknown
Weather: no significant weather observed at this time

METAR text: ULLI 182330Z 26002MPS CAVOK M15/M17 Q1000 R28L/510543 NOSIG
Conditions at: ULLI (ST PETERSBURG , RU) observed 2330 UTC 18 January 2019
Temperature: -15.0°C ( 5°F)
Dewpoint: -17.0°C ( 1°F) [RH = 85%]
Pressure (altimeter): 29.53 inches Hg (1000.0 mb)
Winds: from the W (260 degrees) at 5 MPH (4 knots; 2.1 m/s)
Visibility: 6 or more miles (10+ km)
Ceiling: ceiling and visibility are OK
Clouds: unknown
Weather: no significant weather observed at this time

METAR text: ULLI 182300Z 27002MPS CAVOK M16/M18 Q1000 R28L/510543 NOSIG
Conditions at: ULLI (ST PETERSBURG , RU) observed 2300 UTC 18 January 2019
Temperature: -16.0°C ( 3°F)
Dewpoint: -18.0°C (-0°F) [RH = 85%]
Pressure (altimeter): 29.53 inches Hg (1000.0 mb)
Winds: from the W (270 degrees) at 5 MPH (4 knots; 2.1 m/s)
Visibility: 6 or more miles (10+ km)
Ceiling: ceiling and visibility are OK
Clouds: unknown
Weather: no significant weather observed at this time

METAR text: ULLI 182230Z 26003MPS 9999 FEW011 M15/M16 Q0999 R28L/510543 NOSIG
Conditions at: ULLI (ST PETERSBURG , RU) observed 2230 UTC 18 January 2019
Temperature: -15.0°C ( 5°F)
Dewpoint: -16.0°C ( 3°F) [RH = 92%]
Pressure (altimeter): 29.50 inches Hg (999.0 mb)
Winds: from the W (260 degrees) at 7 MPH (6 knots; 3.1 m/s)
Visibility: 6 or more miles (10+ km)
Ceiling: at least 12,000 feet AGL
Clouds: few clouds at 1100 feet AGL
Weather: no significant weather observed at this time

METAR text: ULLI 182200Z 27003MPS 9999 BKN010 M14/M15 Q0999 R28R/550542 NOSIG
Conditions at: ULLI (ST PETERSBURG , RU) observed 2200 UTC 18 January 2019
Temperature: -14.0°C ( 7°F)
Dewpoint: -15.0°C ( 5°F) [RH = 92%]
Pressure (altimeter): 29.50 inches Hg (999.0 mb)
Winds: from the W (270 degrees) at 7 MPH (6 knots; 3.1 m/s)
Visibility: 6 or more miles (10+ km)
Ceiling: 1000 feet AGL
Clouds: broken clouds at 1000 feet AGL
Weather: no significant weather observed at this time

METAR text: ULLI 182130Z 29003MPS 9999 SCT014 M13/M15 Q0999 R28R/550542 NOSIG
Conditions at: ULLI (ST PETERSBURG , RU) observed 2130 UTC 18 January 2019
Temperature: -13.0°C ( 9°F)
Dewpoint: -15.0°C ( 5°F) [RH = 85%]
Pressure (altimeter): 29.50 inches Hg (999.0 mb)
Winds: from the WNW (290 degrees) at 7 MPH (6 knots; 3.1 m/s)
Visibility: 6 or more miles (10+ km)
Ceiling: at least 12,000 feet AGL
Clouds: scattered clouds at 1400 feet AGL
Weather: no significant weather observed at this time

METAR text: ULLI 182100Z 30002MPS 9000 -SN BKN008 M11/M13 Q0999 R28R/550542 NOSIG
Conditions at: ULLI (ST PETERSBURG , RU) observed 2100 UTC 18 January 2019
Temperature: -11.0°C (12°F)
Dewpoint: -13.0°C ( 9°F) [RH = 85%]
Pressure (altimeter): 29.50 inches Hg (999.0 mb)
Winds: from the WNW (300 degrees) at 5 MPH (4 knots; 2.1 m/s)
Visibility: 6 miles ( 9 km)
Ceiling: 800 feet AGL
Clouds: broken clouds at 800 feet AGL
Weather: -SN  (light snow)

METAR text: ULLI 182030Z 29003MPS 7000 -SN BKN012 M11/M12 Q0999 R28R/550542 NOSIG
Conditions at: ULLI (ST PETERSBURG , RU) observed 2030 UTC 18 January 2019
Temperature: -11.0°C (12°F)
Dewpoint: -12.0°C (10°F) [RH = 92%]
Pressure (altimeter): 29.50 inches Hg (999.0 mb)
Winds: from the WNW (290 degrees) at 7 MPH (6 knots; 3.1 m/s)
Visibility: 4 miles ( 7 km)
Ceiling: 1200 feet AGL
Clouds: broken clouds at 1200 feet AGL
Weather: -SN  (light snow)

METAR text: ULLI 182000Z 29003MPS 6000 -SN BKN008 M10/M12 Q0998 R28R/550542 NOSIG
Conditions at: ULLI (ST PETERSBURG , RU) observed 2000 UTC 18 January 2019
Temperature: -10.0°C (14°F)
Dewpoint: -12.0°C (10°F) [RH = 85%]
Pressure (altimeter): 29.47 inches Hg (998.0 mb)
Winds: from the WNW (290 degrees) at 7 MPH (6 knots; 3.1 m/s)
Visibility: 4 miles ( 6 km)
Ceiling: 800 feet AGL
Clouds: broken clouds at 800 feet AGL
Weather: -SN  (light snow)

METAR text: ULLI 181930Z 31004MPS 7000 -SN BKN013 M10/M11 Q0998 R28R/550542 NOSIG
Conditions at: ULLI (ST PETERSBURG , RU) observed 1930 UTC 18 January 2019
Temperature: -10.0°C (14°F)
Dewpoint: -11.0°C (12°F) [RH = 92%]
Pressure (altimeter): 29.47 inches Hg (998.0 mb)
Winds: from the NW (310 degrees) at 9 MPH (8 knots; 4.1 m/s)
Visibility: 4 miles ( 7 km)
Ceiling: 1300 feet AGL
Clouds: broken clouds at 1300 feet AGL
Weather: -SN  (light snow)

METAR text: ULLI 181900Z 31002MPS 9999 -SN BKN009 M10/M12 Q0998 R28R/550540 NOSIG
Conditions at: ULLI (ST PETERSBURG , RU) observed 1900 UTC 18 January 2019
Temperature: -10.0°C (14°F)
Dewpoint: -12.0°C (10°F) [RH = 85%]
Pressure (altimeter): 29.47 inches Hg (998.0 mb)
Winds: from the NW (310 degrees) at 5 MPH (4 knots; 2.1 m/s)
Visibility: 6 or more miles (10+ km)
Ceiling: 900 feet AGL
Clouds: broken clouds at 900 feet AGL
Weather: -SN  (light snow)

METAR text: ULLI 181830Z 30002MPS 9999 -SN BKN006 M11/M12 Q0997 R28R/550540 NOSIG RMK OBST OBSC
Conditions at: ULLI (ST PETERSBURG , RU) observed 1830 UTC 18 January 2019
Temperature: -11.0°C (12°F)
Dewpoint: -12.0°C (10°F) [RH = 92%]
Pressure (altimeter): 29.44 inches Hg (997.0 mb)
Winds: from the WNW (300 degrees) at 5 MPH (4 knots; 2.1 m/s)
Visibility: 6 or more miles (10+ km)
Ceiling: 600 feet AGL
Clouds: broken clouds at 600 feet AGL
Weather: -SN  (light snow)

METAR text: ULLI 181800Z 29003MPS 6000 -SN BKN028 M10/M11 Q0997 R28R/550540 NOSIG
Conditions at: ULLI (ST PETERSBURG , RU) observed 1800 UTC 18 January 2019
Temperature: -10.0°C (14°F)
Dewpoint: -11.0°C (12°F) [RH = 92%]
Pressure (altimeter): 29.44 inches Hg (997.0 mb)
Winds: from the WNW (290 degrees) at 7 MPH (6 knots; 3.1 m/s)
Visibility: 4 miles ( 6 km)
Ceiling: 2800 feet AGL
Clouds: broken clouds at 2800 feet AGL
Weather: -SN  (light snow)

METAR text: ULLI 181730Z 32002MPS 9999 -SN BKN027 M11/M13 Q0997 R28R/550540 NOSIG
Conditions at: ULLI (ST PETERSBURG , RU) observed 1730 UTC 18 January 2019
Temperature: -11.0°C (12°F)
Dewpoint: -13.0°C ( 9°F) [RH = 85%]
Pressure (altimeter): 29.44 inches Hg (997.0 mb)
Winds: from the NW (320 degrees) at 5 MPH (4 knots; 2.1 m/s)
Visibility: 6 or more miles (10+ km)
Ceiling: 2700 feet AGL
Clouds: broken clouds at 2700 feet AGL
Weather: -SN  (light snow)

METAR text: ULLI 181700Z 29002MPS 9000 -SN BKN026 M10/M11 Q0997 R28R/550540 NOSIG
Conditions at: ULLI (ST PETERSBURG , RU) observed 1700 UTC 18 January 2019
Temperature: -10.0°C (14°F)
Dewpoint: -11.0°C (12°F) [RH = 92%]
Pressure (altimeter): 29.44 inches Hg (997.0 mb)
Winds: from the WNW (290 degrees) at 5 MPH (4 knots; 2.1 m/s)
Visibility: 6 miles ( 9 km)
Ceiling: 2600 feet AGL
Clouds: broken clouds at 2600 feet AGL
Weather: -SN  (light snow)

METAR text: ULLI 181630Z 21002MPS 9999 -SN BKN024 M10/M12 Q0997 R28L/591034 R28R/550540 NOSIG
Conditions at: ULLI (ST PETERSBURG , RU) observed 1630 UTC 18 January 2019
Temperature: -10.0°C (14°F)
Dewpoint: -12.0°C (10°F) [RH = 85%]
Pressure (altimeter): 29.44 inches Hg (997.0 mb)
Winds: from the SSW (210 degrees) at 5 MPH (4 knots; 2.1 m/s)
Visibility: 6 or more miles (10+ km)
Ceiling: 2400 feet AGL
Clouds: broken clouds at 2400 feet AGL
Weather: -SN  (light snow)

METAR text: ULLI 181600Z VRB01MPS 9999 -SN FEW009 BKN017 M11/M12 Q0997 R28L/591034 R28R/550540 NOSIG
Conditions at: ULLI (ST PETERSBURG , RU) observed 1600 UTC 18 January 2019
Temperature: -11.0°C (12°F)
Dewpoint: -12.0°C (10°F) [RH = 92%]
Pressure (altimeter): 29.44 inches Hg (997.0 mb)
Winds: variable direction winds at 2 MPH (2 knots; 1.0 m/s)
Visibility: 6 or more miles (10+ km)
Ceiling: 1700 feet AGL
Clouds: few clouds at 900 feet AGL
broken clouds at 1700 feet AGL
Weather: -SN  (light snow)

METAR text: ULLI 181530Z VRB01MPS 9000 -SN FEW008 BKN016 M11/M13 Q0997 R28L/591034 R28R/550540 NOSIG
Conditions at: ULLI (ST PETERSBURG , RU) observed 1530 UTC 18 January 2019
Temperature: -11.0°C (12°F)
Dewpoint: -13.0°C ( 9°F) [RH = 85%]
Pressure (altimeter): 29.44 inches Hg (997.0 mb)
Winds: variable direction winds at 2 MPH (2 knots; 1.0 m/s)
Visibility: 6 miles ( 9 km)
Ceiling: 1600 feet AGL
Clouds: few clouds at 800 feet AGL
broken clouds at 1600 feet AGL
Weather: -SN  (light snow)

METAR text: ULLI 181500Z 23002MPS 9999 -SN FEW009 BKN016 M10/M11 Q0996 R28L/591034 R28R/550540 NOSIG
Conditions at: ULLI (ST PETERSBURG , RU) observed 1500 UTC 18 January 2019
Temperature: -10.0°C (14°F)
Dewpoint: -11.0°C (12°F) [RH = 92%]
Pressure (altimeter): 29.41 inches Hg (996.0 mb)
Winds: from the SW (230 degrees) at 5 MPH (4 knots; 2.1 m/s)
Visibility: 6 or more miles (10+ km)
Ceiling: 1600 feet AGL
Clouds: few clouds at 900 feet AGL
broken clouds at 1600 feet AGL
Weather: -SN  (light snow)

METAR text: ULLI 181430Z 23002MPS 9000 -SN FEW010 BKN016 M10/M11 Q0996 R28L/591034 R28R/550540 NOSIG
Conditions at: ULLI (ST PETERSBURG , RU) observed 1430 UTC 18 January 2019
Temperature: -10.0°C (14°F)
Dewpoint: -11.0°C (12°F) [RH = 92%]
Pressure (altimeter): 29.41 inches Hg (996.0 mb)
Winds: from the SW (230 degrees) at 5 MPH (4 knots; 2.1 m/s)
Visibility: 6 miles ( 9 km)
Ceiling: 1600 feet AGL
Clouds: few clouds at 1000 feet AGL
broken clouds at 1600 feet AGL
Weather: -SN  (light snow)

METAR text: ULLI 181400Z 28003MPS 9999 -SN FEW010 BKN016 M10/M12 Q0996 R28L/591034 R28R/550540 TEMPO 1500 SHSN BKN005 BKN015CB
Conditions at: ULLI (ST PETERSBURG , RU) observed 1400 UTC 18 January 2019
Temperature: -10.0°C (14°F)
Dewpoint: -12.0°C (10°F) [RH = 85%]
Pressure (altimeter): 29.41 inches Hg (996.0 mb)
Winds: from the W (280 degrees) at 7 MPH (6 knots; 3.1 m/s)
Visibility: 6 or more miles (10+ km)
Ceiling: 1600 feet AGL
Clouds: few clouds at 1000 feet AGL
broken clouds at 1600 feet AGL
Weather: -SN  (light snow)

METAR text: ULLI 181330Z 26002MPS 9000 -SN BKN018 M09/M10 Q0996 R28L/591034 R28R/550540 TEMPO 1500 SHSN BKN005 BKN015CB
Conditions at: ULLI (ST PETERSBURG , RU) observed 1330 UTC 18 January 2019
Temperature: -9.0°C (16°F)
Dewpoint: -10.0°C (14°F) [RH = 92%]
Pressure (altimeter): 29.41 inches Hg (996.0 mb)
Winds: from the W (260 degrees) at 5 MPH (4 knots; 2.1 m/s)
Visibility: 6 miles ( 9 km)
Ceiling: 1800 feet AGL
Clouds: broken clouds at 1800 feet AGL
Weather: -SN  (light snow)

METAR text: ULLI 181300Z 32004MPS 9000 -SN BKN017 M08/M10 Q0995 RESN R28L/591034 R28R/550540 TEMPO 1500 SHSN BKN005 BKN015CB
Conditions at: ULLI (ST PETERSBURG , RU) observed 1300 UTC 18 January 2019
Temperature: -8.0°C (18°F)
Dewpoint: -10.0°C (14°F) [RH = 85%]
Pressure (altimeter): 29.38 inches Hg (995.0 mb)
Winds: from the NW (320 degrees) at 9 MPH (8 knots; 4.1 m/s)
Visibility: 6 miles ( 9 km)
Ceiling: 1700 feet AGL
Clouds: broken clouds at 1700 feet AGL
Weather: -SN  (light snow)

METAR text: ULLI 181230Z 33003MPS 7000 -SN FEW009 BKN018 M08/M09 Q0995 R28L/591034 R28R/550540 TEMPO 1500 SHSN BKN005 BKN015CB
Conditions at: ULLI (ST PETERSBURG , RU) observed 1230 UTC 18 January 2019
Temperature: -8.0°C (18°F)
Dewpoint: -9.0°C (16°F) [RH = 92%]
Pressure (altimeter): 29.38 inches Hg (995.0 mb)
Winds: from the NNW (330 degrees) at 7 MPH (6 knots; 3.1 m/s)
Visibility: 4 miles ( 7 km)
Ceiling: 1800 feet AGL
Clouds: few clouds at 900 feet AGL
broken clouds at 1800 feet AGL
Weather: -SN  (light snow)

METAR text: ULLI 181200Z 26005MPS 6000 -SN BKN013 M06/M08 Q0995 R28L/591034 R28R/550540 TEMPO 1500 SHSN BKN005 BKN015CB
Conditions at: ULLI (ST PETERSBURG , RU) observed 1200 UTC 18 January 2019
Temperature: -6.0°C (21°F)
Dewpoint: -8.0°C (18°F) [RH = 86%]
Pressure (altimeter): 29.38 inches Hg (995.0 mb)
Winds: from the W (260 degrees) at 12 MPH (10 knots; 5.1 m/s)
Visibility: 4 miles ( 6 km)
Ceiling: 1300 feet AGL
Clouds: broken clouds at 1300 feet AGL
Weather: -SN  (light snow)

METAR text: ULLI 181130Z 24004MPS 8000 -SN BKN012 M06/M07 Q0995 RESN R28L/591034 R28R/550540 TEMPO 1500 SHSN BKN005 BKN015CB
Conditions at: ULLI (ST PETERSBURG , RU) observed 1130 UTC 18 January 2019
Temperature: -6.0°C (21°F)
Dewpoint: -7.0°C (19°F) [RH = 93%]
Pressure (altimeter): 29.38 inches Hg (995.0 mb)
Winds: from the WSW (240 degrees) at 9 MPH (8 knots; 4.1 m/s)
Visibility: 5 miles ( 8 km)
Ceiling: 1200 feet AGL
Clouds: broken clouds at 1200 feet AGL
Weather: -SN  (light snow)

METAR text: ULLI 181100Z 23002MPS 180V280 4700 -SN BKN029 M06/M08 Q0995 R28L/590538 TEMPO 1500 SHSN BKN005 BKN015CB
Conditions at: ULLI (ST PETERSBURG , RU) observed 1100 UTC 18 January 2019
Temperature: -6.0°C (21°F)
Dewpoint: -8.0°C (18°F) [RH = 86%]
Pressure (altimeter): 29.38 inches Hg (995.0 mb)
Winds: from the SW (230 degrees) at 5 MPH (4 knots; 2.1 m/s)
Visibility: 2.92 miles (4.70 km)
Ceiling: 2900 feet AGL
Clouds: broken clouds at 2900 feet AGL
Weather: -SN  (light snow)

METAR text: ULLI 181030Z VRB01MPS 9000 -SN BKN029 M07/M09 Q0995 R28L/590538 TEMPO 1500 SHSN BKN005 BKN015CB
Conditions at: ULLI (ST PETERSBURG , RU) observed 1030 UTC 18 January 2019
Temperature: -7.0°C (19°F)
Dewpoint: -9.0°C (16°F) [RH = 86%]
Pressure (altimeter): 29.38 inches Hg (995.0 mb)
Winds: variable direction winds at 2 MPH (2 knots; 1.0 m/s)
Visibility: 6 miles ( 9 km)
Ceiling: 2900 feet AGL
Clouds: broken clouds at 2900 feet AGL
Weather: -SN  (light snow)

METAR text: ULLI 181000Z 00000MPS 3900 -SN FEW011 BKN017 M07/M09 Q0995 RESN R28L/520540 TEMPO 1500 SHSN BKN005 BKN015CB
Conditions at: ULLI (ST PETERSBURG , RU) observed 1000 UTC 18 January 2019
Temperature: -7.0°C (19°F)
Dewpoint: -9.0°C (16°F) [RH = 86%]
Pressure (altimeter): 29.38 inches Hg (995.0 mb)
Winds: calm
Visibility: 2.42 miles (3.89 km)
Ceiling: 1700 feet AGL
Clouds: few clouds at 1100 feet AGL
broken clouds at 1700 feet AGL
Weather: -SN  (light snow)

METAR text: ULLI 180930Z 28002MPS 5000 -SN FEW011 BKN015 M07/M09 Q0994 RESN R28L/520540 TEMPO 1500 SHSN BKN005 BKN015CB
Conditions at: ULLI (ST PETERSBURG , RU) observed 0930 UTC 18 January 2019
Temperature: -7.0°C (19°F)
Dewpoint: -9.0°C (16°F) [RH = 86%]
Pressure (altimeter): 29.35 inches Hg (994.0 mb)
Winds: from the W (280 degrees) at 5 MPH (4 knots; 2.1 m/s)
Visibility: 3 miles ( 5 km)
Ceiling: 1500 feet AGL
Clouds: few clouds at 1100 feet AGL
broken clouds at 1500 feet AGL
Weather: -SN  (light snow)

METAR text: ULLI 180900Z 31002MPS 8000 -SN FEW011 BKN015 M08/M09 Q0994 R28L/520540 TEMPO 1500 SHSN BKN005 BKN015CB
Conditions at: ULLI (ST PETERSBURG , RU) observed 0900 UTC 18 January 2019
Temperature: -8.0°C (18°F)
Dewpoint: -9.0°C (16°F) [RH = 92%]
Pressure (altimeter): 29.35 inches Hg (994.0 mb)
Winds: from the NW (310 degrees) at 5 MPH (4 knots; 2.1 m/s)
Visibility: 5 miles ( 8 km)
Ceiling: 1500 feet AGL
Clouds: few clouds at 1100 feet AGL
broken clouds at 1500 feet AGL
Weather: -SN  (light snow)

METAR text: ULLI 180830Z 29003MPS 9999 -SN FEW010 BKN015 M08/M09 Q0994 R28L/520540 R28R/490534 NOSIG
Conditions at: ULLI (ST PETERSBURG , RU) observed 0830 UTC 18 January 2019
Temperature: -8.0°C (18°F)
Dewpoint: -9.0°C (16°F) [RH = 92%]
Pressure (altimeter): 29.35 inches Hg (994.0 mb)
Winds: from the WNW (290 degrees) at 7 MPH (6 knots; 3.1 m/s)
Visibility: 6 or more miles (10+ km)
Ceiling: 1500 feet AGL
Clouds: few clouds at 1000 feet AGL
broken clouds at 1500 feet AGL
Weather: -SN  (light snow)

METAR text: ULLI 180800Z 29003MPS 9999 -SN FEW011 BKN015 M08/M10 Q0994 R28L/591030 R28R/490534 NOSIG
Conditions at: ULLI (ST PETERSBURG , RU) observed 0800 UTC 18 January 2019
Temperature: -8.0°C (18°F)
Dewpoint: -10.0°C (14°F) [RH = 85%]
Pressure (altimeter): 29.35 inches Hg (994.0 mb)
Winds: from the WNW (290 degrees) at 7 MPH (6 knots; 3.1 m/s)
Visibility: 6 or more miles (10+ km)
Ceiling: 1500 feet AGL
Clouds: few clouds at 1100 feet AGL
broken clouds at 1500 feet AGL
Weather: -SN  (light snow)

METAR text: ULLI 180730Z 28003MPS 7000 -SN FEW011 BKN015 M08/M09 Q0993 R28L/591030 R28R/490534 NOSIG
Conditions at: ULLI (ST PETERSBURG , RU) observed 0730 UTC 18 January 2019
Temperature: -8.0°C (18°F)
Dewpoint: -9.0°C (16°F) [RH = 92%]
Pressure (altimeter): 29.32 inches Hg (993.0 mb)
Winds: from the W (280 degrees) at 7 MPH (6 knots; 3.1 m/s)
Visibility: 4 miles ( 7 km)
Ceiling: 1500 feet AGL
Clouds: few clouds at 1100 feet AGL
broken clouds at 1500 feet AGL
Weather: -SN  (light snow)

METAR text: ULLI 180700Z 27002MPS 6000 -SN FEW010 BKN015 M08/M09 Q0993 R28L/591030 R28R/490534 NOSIG
Conditions at: ULLI (ST PETERSBURG , RU) observed 0700 UTC 18 January 2019
Temperature: -8.0°C (18°F)
Dewpoint: -9.0°C (16°F) [RH = 92%]
Pressure (altimeter): 29.32 inches Hg (993.0 mb)
Winds: from the W (270 degrees) at 5 MPH (4 knots; 2.1 m/s)
Visibility: 4 miles ( 6 km)
Ceiling: 1500 feet AGL
Clouds: few clouds at 1000 feet AGL
broken clouds at 1500 feet AGL
Weather: -SN  (light snow)

METAR text: ULLI 180630Z 27002MPS 240V300 9000 -SN SCT010 BKN015 M09/M10 Q0993 R28L/591030 R28R/490534 NOSIG
Conditions at: ULLI (ST PETERSBURG , RU) observed 0630 UTC 18 January 2019
Temperature: -9.0°C (16°F)
Dewpoint: -10.0°C (14°F) [RH = 92%]
Pressure (altimeter): 29.32 inches Hg (993.0 mb)
Winds: from the W (270 degrees) at 5 MPH (4 knots; 2.1 m/s)
Visibility: 6 miles ( 9 km)
Ceiling: 1500 feet AGL
Clouds: scattered clouds at 1000 feet AGL
broken clouds at 1500 feet AGL
Weather: -SN  (light snow)

METAR text: ULLI 180600Z 28002MPS 6000 -SN FEW011 BKN021 M09/M10 Q0992 R28L/591030 R28R/590534 NOSIG
Conditions at: ULLI (ST PETERSBURG , RU) observed 0600 UTC 18 January 2019
Temperature: -9.0°C (16°F)
Dewpoint: -10.0°C (14°F) [RH = 92%]
Pressure (altimeter): 29.29 inches Hg (992.0 mb)
Winds: from the W (280 degrees) at 5 MPH (4 knots; 2.1 m/s)
Visibility: 4 miles ( 6 km)
Ceiling: 2100 feet AGL
Clouds: few clouds at 1100 feet AGL
broken clouds at 2100 feet AGL
Weather: -SN  (light snow)

METAR text: ULLI 180530Z 29004MPS 5000 -SN FEW010 OVC021 M09/M11 Q0992 R88/590534 NOSIG
Conditions at: ULLI (ST PETERSBURG , RU) observed 0530 UTC 18 January 2019
Temperature: -9.0°C (16°F)
Dewpoint: -11.0°C (12°F) [RH = 85%]
Pressure (altimeter): 29.29 inches Hg (992.0 mb)
Winds: from the WNW (290 degrees) at 9 MPH (8 knots; 4.1 m/s)
Visibility: 3 miles ( 5 km)
Ceiling: 2100 feet AGL
Clouds: few clouds at 1000 feet AGL
overcast cloud deck at 2100 feet AGL
Weather: -SN  (light snow)

METAR text: ULLI 180500Z 30006MPS 4500 -SN FEW010 OVC021 M09/M10 Q0991 RESN R88/590534 NOSIG
Conditions at: ULLI (ST PETERSBURG , RU) observed 0500 UTC 18 January 2019
Temperature: -9.0°C (16°F)
Dewpoint: -10.0°C (14°F) [RH = 92%]
Pressure (altimeter): 29.26 inches Hg (991.0 mb)
Winds: from the WNW (300 degrees) at 14 MPH (12 knots; 6.2 m/s)
Visibility: 2.80 miles (4.51 km)
Ceiling: 2100 feet AGL
Clouds: few clouds at 1000 feet AGL
overcast cloud deck at 2100 feet AGL
Weather: -SN  (light snow)

METAR text: ULLI 180430Z 30004MPS 6000 -SN SCT010 OVC030 M08/M09 Q0991 R28R/590534 NOSIG
Conditions at: ULLI (ST PETERSBURG , RU) observed 0430 UTC 18 January 2019
Temperature: -8.0°C (18°F)
Dewpoint: -9.0°C (16°F) [RH = 92%]
Pressure (altimeter): 29.26 inches Hg (991.0 mb)
Winds: from the WNW (300 degrees) at 9 MPH (8 knots; 4.1 m/s)
Visibility: 4 miles ( 6 km)
Ceiling: 3000 feet AGL
Clouds: scattered clouds at 1000 feet AGL
overcast cloud deck at 3000 feet AGL
Weather: -SN  (light snow)

METAR text: ULLI 180400Z 30006MPS 3500 -SN FEW009 OVC014 M08/M09 Q0991 RESN R28R/590534 NOSIG
Conditions at: ULLI (ST PETERSBURG , RU) observed 0400 UTC 18 January 2019
Temperature: -8.0°C (18°F)
Dewpoint: -9.0°C (16°F) [RH = 92%]
Pressure (altimeter): 29.26 inches Hg (991.0 mb)
Winds: from the WNW (300 degrees) at 14 MPH (12 knots; 6.2 m/s)
Visibility: 2.17 miles (3.49 km)
Ceiling: 1400 feet AGL
Clouds: few clouds at 900 feet AGL
overcast cloud deck at 1400 feet AGL
Weather: -SN  (light snow)

METAR text: ULLI 180330Z 29005MPS 4500 -SN OVC013 M08/M10 Q0990 REBLSN R28L/550539 NOSIG
Conditions at: ULLI (ST PETERSBURG , RU) observed 0330 UTC 18 January 2019
Temperature: -8.0°C (18°F)
Dewpoint: -10.0°C (14°F) [RH = 85%]
Pressure (altimeter): 29.23 inches Hg (990.0 mb)
Winds: from the WNW (290 degrees) at 12 MPH (10 knots; 5.1 m/s)
Visibility: 2.80 miles (4.51 km)
Ceiling: 1300 feet AGL
Clouds: overcast cloud deck at 1300 feet AGL
Weather: -SN  (light snow)

METAR text: ULLI 180300Z 30006MPS 3500 -SN OVC025 M08/M10 Q0990 R28L/550539 NOSIG
Conditions at: ULLI (ST PETERSBURG , RU) observed 0300 UTC 18 January 2019
Temperature: -8.0°C (18°F)
Dewpoint: -10.0°C (14°F) [RH = 85%]
Pressure (altimeter): 29.23 inches Hg (990.0 mb)
Winds: from the WNW (300 degrees) at 14 MPH (12 knots; 6.2 m/s)
Visibility: 2.17 miles (3.49 km)
Ceiling: 2500 feet AGL
Clouds: overcast cloud deck at 2500 feet AGL
Weather: -SN  (light snow)

METAR text: ULLI 180230Z 28012MPS 3800 -SN BLSN BKN018 M07/M09 Q0989 R28L/550539 NOSIG
Conditions at: ULLI (ST PETERSBURG , RU) observed 0230 UTC 18 January 2019
Temperature: -7.0°C (19°F)
Dewpoint: -9.0°C (16°F) [RH = 86%]
Pressure (altimeter): 29.20 inches Hg (989.0 mb)
Winds: from the W (280 degrees) at 26 MPH (23 knots; 11.8 m/s)
Visibility: 2.36 miles (3.80 km)
Ceiling: 1800 feet AGL
Clouds: broken clouds at 1800 feet AGL
Weather: -SN BLSN  (light snow, blowing snow)

METAR text: ULLI 180200Z 27007MPS 6000 -SN BLSN BKN016 M06/M09 Q0989 R28L/550539 NOSIG
Conditions at: ULLI (ST PETERSBURG , RU) observed 0200 UTC 18 January 2019
Temperature: -6.0°C (21°F)
Dewpoint: -9.0°C (16°F) [RH = 79%]
Pressure (altimeter): 29.20 inches Hg (989.0 mb)
Winds: from the W (270 degrees) at 16 MPH (14 knots; 7.2 m/s)
Visibility: 4 miles ( 6 km)
Ceiling: 1600 feet AGL
Clouds: broken clouds at 1600 feet AGL
Weather: -SN BLSN  (light snow, blowing snow)

METAR text: ULLI 180130Z 27008MPS 9999 BKN014 M06/M09 Q0988 REBLSN R28L/550539 NOSIG
Conditions at: ULLI (ST PETERSBURG , RU) observed 0130 UTC 18 January 2019
Temperature: -6.0°C (21°F)
Dewpoint: -9.0°C (16°F) [RH = 79%]
Pressure (altimeter): 29.17 inches Hg (988.0 mb)
Winds: from the W (270 degrees) at 18 MPH (16 knots; 8.2 m/s)
Visibility: 6 or more miles (10+ km)
Ceiling: 1400 feet AGL
Clouds: broken clouds at 1400 feet AGL
Weather: no significant weather observed at this time

METAR text: ULLI 180100Z 27009MPS 9000 -SN BLSN BKN013 M06/M09 Q0987 R28L/550539 NOSIG
Conditions at: ULLI (ST PETERSBURG , RU) observed 0100 UTC 18 January 2019
Temperature: -6.0°C (21°F)
Dewpoint: -9.0°C (16°F) [RH = 79%]
Pressure (altimeter): 29.14 inches Hg (987.0 mb)
Winds: from the W (270 degrees) at 20 MPH (17 knots; 8.7 m/s)
Visibility: 6 miles ( 9 km)
Ceiling: 1300 feet AGL
Clouds: broken clouds at 1300 feet AGL
Weather: -SN BLSN  (light snow, blowing snow)

METAR text: ULLI 180030Z 27009MPS 8000 -SN BLSN BKN016 M06/M09 Q0987 R28L/550539 NOSIG
Conditions at: ULLI (ST PETERSBURG , RU) observed 0030 UTC 18 January 2019
Temperature: -6.0°C (21°F)
Dewpoint: -9.0°C (16°F) [RH = 79%]
Pressure (altimeter): 29.14 inches Hg (987.0 mb)
Winds: from the W (270 degrees) at 20 MPH (17 knots; 8.7 m/s)
Visibility: 5 miles ( 8 km)
Ceiling: 1600 feet AGL
Clouds: broken clouds at 1600 feet AGL
Weather: -SN BLSN  (light snow, blowing snow)

Forecast for: ULLI (ST PETERSBURG , RU)
Text: TAF ULLI 191056Z 1912/2012 22003MPS 5000 -SN BKN014
Forecast period: 1200 to 1800 UTC 19 January 2019
Forecast type: FROM: standard forecast or significant change
Winds: from the SW (220 degrees) at 7 MPH (6 knots; 3.1 m/s)
Visibility: 3 miles (5 km)
Ceiling: 1400 feet AGL
Clouds: broken clouds at 1400 feet AGL
Weather: -SN  (light snow)
Text: TEMPO 1912/1920 3100 -SHSN BR BKN011 BKN020CB
Forecast period: 1200 to 2000 UTC 19 January 2019
Forecast type: TEMPORARY: The following changes expected for less than half the time period
Visibility: 1.93 miles (3.11 km)
Ceiling: 1100 feet AGL
Clouds: broken clouds at 1100 feet AGL
broken clouds at 2000 feet AGL
Weather: -SHSN BR  (light snow showers, mist)
Text: BECMG 1918/1920 19004G09MPS
Forecast period: 1800 UTC 19 January 2019 to 0700 UTC 20 January 2019
Forecast type: BECOMING: Conditions expected to become as follows by 2000 UTC 19 January 2019
Winds: from the S (190 degrees) at 9 MPH (8 knots; 4.1 m/s)
gusting to 20 MPH (17 knots; 8.7 m/s)
Visibility: 3 miles (5 km)
Ceiling: 1400 feet AGL
Clouds: broken clouds at 1400 feet AGL
Weather: -SN  (light snow)
Text: TEMPO 1920/2007 18006G12MPS 1000 SHSN BLSN BKN006 BKN015CB
Forecast period: 2000 UTC 19 January 2019 to 0700 UTC 20 January 2019
Forecast type: TEMPORARY: The following changes expected for less than half the time period
Winds: from the S (180 degrees) at 14 MPH (12 knots; 6.2 m/s)
gusting to 26 MPH (23 knots; 11.8 m/s)
Visibility: 0.62 miles (1.00 km)
Ceiling: 600 feet AGL
Clouds: broken clouds at 600 feet AGL
broken clouds at 1500 feet AGL
Weather: SHSN BLSN  (snow showers, blowing snow)
Text: FM200700 31007G12MPS 5000 -SN DRSN OVC015
Forecast period: 0700 to 1200 UTC 20 January 2019
Forecast type: FROM: standard forecast or significant change
Winds: from the NW (310 degrees) at 16 MPH (14 knots; 7.2 m/s)
gusting to 26 MPH (23 knots; 11.8 m/s)
Visibility: 3 miles (5 km)
Ceiling: 1500 feet AGL
Clouds: overcast cloud deck at 1500 feet AGL
Weather: -SN DRSN  (light snow, low drifting snow)
Text: TEMPO 2007/2012 3100 -SHSN BKN011 BKN020CB
Forecast period: 0700 to 1200 UTC 20 January 2019
Forecast type: TEMPORARY: The following changes expected for less than half the time period
Visibility: 1.93 miles (3.11 km)
Ceiling: 1100 feet AGL
Clouds: broken clouds at 1100 feet AGL
broken clouds at 2000 feet AGL
Weather: -SHSN  (light snow showers)